sensor_id;sensor_type;location;lat;lon;timestamp;pressure;altitude;pressure_sealevel;temperature;humidity
41862;BME280;27537;57.134;-2.136;2023-04-01T00:01:19;99875.00;;;5.77;100.00
41862;BME280;27537;57.134;-2.136;2023-04-01T00:03:46;99879.25;;;5.79;100.00
41862;BME280;27537;57.134;-2.136;2023-04-01T00:06:15;99916.00;;;5.95;100.00
41862;BME280;27537;57.134;-2.136;2023-04-01T00:08:43;99828.63;;;5.36;100.00
41862;BME280;27537;57.134;-2.136;2023-04-01T00:11:11;99860.34;;;5.47;100.00
41862;BME280;27537;57.134;-2.136;2023-04-01T00:13:37;99877.91;;;5.38;100.00
41862;BME280;27537;57.134;-2.136;2023-04-01T00:16:04;99895.88;;;5.74;100.00
41862;BME280;27537;57.134;-2.136;2023-04-01T00:18:45;99889.38;;;5.60;100.00
41862;BME280;27537;57.134;-2.136;2023-04-01T00:21:14;99861.88;;;5.53;100.00
41862;BME280;27537;57.134;-2.136;2023-04-01T00:23:41;99865.94;;;5.62;100.00
41862;BME280;27537;57.134;-2.136;2023-04-01T00:26:08;99842.28;;;5.43;100.00
41862;BME280;27537;57.134;-2.136;2023-04-01T00:28:35;99848.44;;;5.40;100.00
41862;BME280;27537;57.134;-2.136;2023-04-01T00:31:10;99897.94;;;5.62;100.00
41862;BME280;27537;57.134;-2.136;2023-04-01T00:33:38;99935.38;;;5.85;100.00
41862;BME280;27537;57.134;-2.136;2023-04-01T00:36:23;99829.16;;;5.19;100.00
41862;BME280;27537;57.134;-2.136;2023-04-01T00:38:49;99880.81;;;5.57;100.00
41862;BME280;27537;57.134;-2.136;2023-04-01T00:41:17;99929.66;;;6.02;100.00
41862;BME280;27537;57.134;-2.136;2023-04-01T00:43:50;99934.53;;;6.13;100.00
41862;BME280;27537;57.134;-2.136;2023-04-01T00:46:17;99938.31;;;6.02;100.00
41862;BME280;27537;57.134;-2.136;2023-04-01T00:48:48;99866.44;;;5.73;100.00
41862;BME280;27537;57.134;-2.136;2023-04-01T00:51:18;99860.22;;;5.50;100.00
41862;BME280;27537;57.134;-2.136;2023-04-01T00:53:50;99906.25;;;5.74;100.00
41862;BME280;27537;57.134;-2.136;2023-04-01T00:56:24;99931.38;;;5.73;100.00
41862;BME280;27537;57.134;-2.136;2023-04-01T00:59:06;99881.13;;;5.18;100.00
41862;BME280;27537;57.134;-2.136;2023-04-01T01:01:35;99910.31;;;5.26;100.00
41862;BME280;27537;57.134;-2.136;2023-04-01T01:04:03;99921.59;;;5.53;100.00
41862;BME280;27537;57.134;-2.136;2023-04-01T01:12:13;99957.00;;;5.85;100.00
41862;BME280;27537;57.134;-2.136;2023-04-01T01:14:53;99960.75;;;5.75;100.00
41862;BME280;27537;57.134;-2.136;2023-04-01T01:29:05;99974.06;;;5.64;100.00
41862;BME280;27537;57.134;-2.136;2023-04-01T01:34:36;99920.50;;;5.32;100.00
41862;BME280;27537;57.134;-2.136;2023-04-01T01:37:10;99946.44;;;5.32;100.00
41862;BME280;27537;57.134;-2.136;2023-04-01T01:39:41;99984.34;;;5.69;100.00
41862;BME280;27537;57.134;-2.136;2023-04-01T01:42:13;99959.00;;;5.47;100.00
41862;BME280;27537;57.134;-2.136;2023-04-01T01:44:42;99906.13;;;5.20;100.00
41862;BME280;27537;57.134;-2.136;2023-04-01T01:47:11;99951.97;;;5.51;100.00
41862;BME280;27537;57.134;-2.136;2023-04-01T01:49:41;99941.91;;;5.40;100.00
41862;BME280;27537;57.134;-2.136;2023-04-01T01:52:10;99907.03;;;5.19;100.00
41862;BME280;27537;57.134;-2.136;2023-04-01T01:54:50;99917.19;;;5.27;100.00
41862;BME280;27537;57.134;-2.136;2023-04-01T01:57:22;99965.13;;;5.45;100.00
41862;BME280;27537;57.134;-2.136;2023-04-01T01:59:52;99937.66;;;5.36;100.00
41862;BME280;27537;57.134;-2.136;2023-04-01T02:02:22;99976.97;;;5.54;100.00
41862;BME280;27537;57.134;-2.136;2023-04-01T02:04:51;99926.06;;;5.18;100.00
41862;BME280;27537;57.134;-2.136;2023-04-01T02:07:23;99993.38;;;5.56;100.00
41862;BME280;27537;57.134;-2.136;2023-04-01T02:09:52;99979.34;;;5.31;100.00
41862;BME280;27537;57.134;-2.136;2023-04-01T02:12:19;99922.75;;;5.13;100.00
41862;BME280;27537;57.134;-2.136;2023-04-01T02:15:03;100010.53;;;5.61;100.00
41862;BME280;27537;57.134;-2.136;2023-04-01T02:17:34;99936.25;;;5.26;100.00
41862;BME280;27537;57.134;-2.136;2023-04-01T02:20:10;100012.81;;;5.72;100.00
41862;BME280;27537;57.134;-2.136;2023-04-01T02:22:43;99977.78;;;5.56;100.00
41862;BME280;27537;57.134;-2.136;2023-04-01T02:25:13;100012.91;;;5.69;100.00
41862;BME280;27537;57.134;-2.136;2023-04-01T02:27:42;100026.69;;;5.71;100.00
41862;BME280;27537;57.134;-2.136;2023-04-01T02:30:11;99978.59;;;5.28;100.00
41862;BME280;27537;57.134;-2.136;2023-04-01T02:32:38;99980.19;;;5.32;100.00
41862;BME280;27537;57.134;-2.136;2023-04-01T02:35:10;100029.47;;;5.65;100.00
41862;BME280;27537;57.134;-2.136;2023-04-01T02:37:39;100016.53;;;5.63;100.00
41862;BME280;27537;57.134;-2.136;2023-04-01T02:40:12;100009.63;;;5.62;100.00
41862;BME280;27537;57.134;-2.136;2023-04-01T02:42:39;100000.03;;;5.64;100.00
41862;BME280;27537;57.134;-2.136;2023-04-01T02:45:06;100007.22;;;5.56;100.00
41862;BME280;27537;57.134;-2.136;2023-04-01T02:47:33;99988.31;;;5.20;100.00
41862;BME280;27537;57.134;-2.136;2023-04-01T02:50:00;100030.16;;;5.40;100.00
41862;BME280;27537;57.134;-2.136;2023-04-01T02:52:28;100002.53;;;5.38;100.00
41862;BME280;27537;57.134;-2.136;2023-04-01T02:54:56;100030.47;;;5.59;100.00
41862;BME280;27537;57.134;-2.136;2023-04-01T02:57:24;100056.06;;;5.73;100.00
41862;BME280;27537;57.134;-2.136;2023-04-01T02:59:51;99972.94;;;5.13;100.00
41862;BME280;27537;57.134;-2.136;2023-04-01T03:02:18;99991.53;;;5.29;100.00
41862;BME280;27537;57.134;-2.136;2023-04-01T03:04:45;100000.88;;;5.35;100.00
41862;BME280;27537;57.134;-2.136;2023-04-01T03:07:12;99975.25;;;5.23;100.00
41862;BME280;27537;57.134;-2.136;2023-04-01T03:09:39;100053.16;;;5.84;100.00
41862;BME280;27537;57.134;-2.136;2023-04-01T03:12:06;100055.88;;;5.81;100.00
41862;BME280;27537;57.134;-2.136;2023-04-01T03:14:33;99976.00;;;5.28;100.00
41862;BME280;27537;57.134;-2.136;2023-04-01T03:17:00;100056.28;;;5.65;100.00
41862;BME280;27537;57.134;-2.136;2023-04-01T03:19:27;100050.53;;;5.54;100.00
41862;BME280;27537;57.134;-2.136;2023-04-01T03:21:54;100011.94;;;5.42;100.00
41862;BME280;27537;57.134;-2.136;2023-04-01T03:24:20;100003.91;;;5.51;100.00
41862;BME280;27537;57.134;-2.136;2023-04-01T03:26:47;99989.34;;;5.45;100.00
41862;BME280;27537;57.134;-2.136;2023-04-01T03:29:14;100014.84;;;5.61;100.00
41862;BME280;27537;57.134;-2.136;2023-04-01T03:31:42;100055.75;;;5.84;100.00
41862;BME280;27537;57.134;-2.136;2023-04-01T03:34:09;100061.72;;;5.87;100.00
41862;BME280;27537;57.134;-2.136;2023-04-01T03:36:36;100050.72;;;5.79;100.00
41862;BME280;27537;57.134;-2.136;2023-04-01T03:39:03;100079.69;;;5.97;100.00
41862;BME280;27537;57.134;-2.136;2023-04-01T03:41:30;100045.69;;;5.73;100.00
41862;BME280;27537;57.134;-2.136;2023-04-01T03:43:57;100043.09;;;5.73;100.00
41862;BME280;27537;57.134;-2.136;2023-04-01T03:46:24;100061.56;;;5.94;100.00
41862;BME280;27537;57.134;-2.136;2023-04-01T03:48:50;100048.06;;;5.81;100.00
41862;BME280;27537;57.134;-2.136;2023-04-01T03:51:17;100059.44;;;5.77;100.00
41862;BME280;27537;57.134;-2.136;2023-04-01T03:53:44;100050.03;;;5.73;100.00
41862;BME280;27537;57.134;-2.136;2023-04-01T03:56:11;100051.56;;;5.80;100.00
41862;BME280;27537;57.134;-2.136;2023-04-01T03:58:38;100012.41;;;5.56;100.00
41862;BME280;27537;57.134;-2.136;2023-04-01T04:01:19;100057.50;;;5.83;100.00
41862;BME280;27537;57.134;-2.136;2023-04-01T04:03:48;100032.13;;;5.63;100.00
41862;BME280;27537;57.134;-2.136;2023-04-01T04:06:17;100101.91;;;6.07;100.00
41862;BME280;27537;57.134;-2.136;2023-04-01T04:08:45;100020.94;;;5.61;100.00
41862;BME280;27537;57.134;-2.136;2023-04-01T04:11:12;100067.88;;;5.85;100.00
41862;BME280;27537;57.134;-2.136;2023-04-01T04:13:39;100092.56;;;6.00;100.00
41862;BME280;27537;57.134;-2.136;2023-04-01T04:16:06;100071.22;;;5.88;100.00
41862;BME280;27537;57.134;-2.136;2023-04-01T04:18:33;100069.38;;;5.92;100.00
41862;BME280;27537;57.134;-2.136;2023-04-01T04:21:00;100108.78;;;6.10;100.00
41862;BME280;27537;57.134;-2.136;2023-04-01T04:23:26;100092.38;;;6.07;100.00
41862;BME280;27537;57.134;-2.136;2023-04-01T04:28:26;100102.09;;;6.01;100.00
41862;BME280;27537;57.134;-2.136;2023-04-01T04:30:53;100104.81;;;5.95;100.00
41862;BME280;27537;57.134;-2.136;2023-04-01T04:33:21;100120.25;;;6.02;100.00
41862;BME280;27537;57.134;-2.136;2023-04-01T04:35:49;100099.66;;;5.93;100.00
41862;BME280;27537;57.134;-2.136;2023-04-01T04:38:16;100122.13;;;5.97;100.00
41862;BME280;27537;57.134;-2.136;2023-04-01T04:40:43;100116.00;;;5.98;100.00
41862;BME280;27537;57.134;-2.136;2023-04-01T04:43:11;100128.84;;;6.04;100.00
41862;BME280;27537;57.134;-2.136;2023-04-01T04:45:38;100144.56;;;6.00;100.00
41862;BME280;27537;57.134;-2.136;2023-04-01T04:48:08;100106.16;;;5.78;100.00
41862;BME280;27537;57.134;-2.136;2023-04-01T04:50:35;100145.31;;;6.03;100.00
41862;BME280;27537;57.134;-2.136;2023-04-01T04:53:02;100140.47;;;5.89;100.00
41862;BME280;27537;57.134;-2.136;2023-04-01T04:55:29;100062.19;;;5.39;100.00
41862;BME280;27537;57.134;-2.136;2023-04-01T04:57:57;100125.81;;;5.87;100.00
41862;BME280;27537;57.134;-2.136;2023-04-01T05:00:23;100110.47;;;5.79;100.00
41862;BME280;27537;57.134;-2.136;2023-04-01T05:02:50;100117.44;;;5.77;100.00
41862;BME280;27537;57.134;-2.136;2023-04-01T05:05:17;100116.56;;;5.77;100.00
41862;BME280;27537;57.134;-2.136;2023-04-01T05:07:44;100132.75;;;5.88;100.00
41862;BME280;27537;57.134;-2.136;2023-04-01T05:10:10;100098.78;;;5.63;100.00
41862;BME280;27537;57.134;-2.136;2023-04-01T05:12:37;100151.53;;;5.98;100.00
41862;BME280;27537;57.134;-2.136;2023-04-01T05:15:06;100113.28;;;5.70;100.00
41862;BME280;27537;57.134;-2.136;2023-04-01T05:17:33;100172.34;;;5.98;100.00
41862;BME280;27537;57.134;-2.136;2023-04-01T05:19:59;100115.31;;;5.60;100.00
41862;BME280;27537;57.134;-2.136;2023-04-01T05:22:26;100094.13;;;5.43;100.00
41862;BME280;27537;57.134;-2.136;2023-04-01T05:24:53;100060.84;;;5.26;100.00
41862;BME280;27537;57.134;-2.136;2023-04-01T05:27:20;100116.22;;;5.58;100.00
41862;BME280;27537;57.134;-2.136;2023-04-01T05:29:47;100112.78;;;5.57;100.00
41862;BME280;27537;57.134;-2.136;2023-04-01T05:32:14;100189.72;;;5.96;100.00
41862;BME280;27537;57.134;-2.136;2023-04-01T05:34:41;100164.28;;;5.74;100.00
41862;BME280;27537;57.134;-2.136;2023-04-01T05:37:08;100125.63;;;5.63;100.00
41862;BME280;27537;57.134;-2.136;2023-04-01T05:39:39;100152.88;;;5.80;100.00
41862;BME280;27537;57.134;-2.136;2023-04-01T05:42:06;100162.19;;;5.87;100.00
41862;BME280;27537;57.134;-2.136;2023-04-01T05:44:34;100180.31;;;5.90;100.00
41862;BME280;27537;57.134;-2.136;2023-04-01T05:47:02;100210.59;;;5.91;100.00
41862;BME280;27537;57.134;-2.136;2023-04-01T05:49:30;100208.09;;;5.88;100.00
41862;BME280;27537;57.134;-2.136;2023-04-01T05:51:57;100178.66;;;5.86;100.00
41862;BME280;27537;57.134;-2.136;2023-04-01T05:54:24;100136.34;;;5.51;100.00
41862;BME280;27537;57.134;-2.136;2023-04-01T05:56:50;100172.13;;;5.73;100.00
41862;BME280;27537;57.134;-2.136;2023-04-01T05:59:17;100148.34;;;5.55;100.00
41862;BME280;27537;57.134;-2.136;2023-04-01T06:01:44;100154.16;;;5.65;100.00
41862;BME280;27537;57.134;-2.136;2023-04-01T06:04:14;100138.13;;;5.49;100.00
41862;BME280;27537;57.134;-2.136;2023-04-01T06:06:42;100223.69;;;5.88;100.00
41862;BME280;27537;57.134;-2.136;2023-04-01T06:09:22;100193.72;;;5.75;100.00
41862;BME280;27537;57.134;-2.136;2023-04-01T06:15:25;100216.81;;;5.85;100.00
41862;BME280;27537;57.134;-2.136;2023-04-01T06:29:57;100256.16;;;6.06;100.00
41862;BME280;27537;57.134;-2.136;2023-04-01T06:43:50;100249.81;;;6.16;100.00
41862;BME280;27537;57.134;-2.136;2023-04-01T06:49:41;100278.44;;;6.15;100.00
41862;BME280;27537;57.134;-2.136;2023-04-01T06:52:25;100192.28;;;5.63;100.00
41862;BME280;27537;57.134;-2.136;2023-04-01T06:55:00;100253.91;;;5.90;100.00
41862;BME280;27537;57.134;-2.136;2023-04-01T06:57:40;100249.56;;;5.91;100.00
41862;BME280;27537;57.134;-2.136;2023-04-01T07:02:54;100254.13;;;5.83;100.00
41862;BME280;27537;57.134;-2.136;2023-04-01T07:05:27;100261.81;;;5.86;100.00
41862;BME280;27537;57.134;-2.136;2023-04-01T07:07:58;100277.91;;;6.02;100.00
41862;BME280;27537;57.134;-2.136;2023-04-01T07:10:37;100295.84;;;6.13;100.00
41862;BME280;27537;57.134;-2.136;2023-04-01T07:13:15;100265.59;;;6.08;100.00
41862;BME280;27537;57.134;-2.136;2023-04-01T07:15:50;100262.19;;;6.06;100.00
41862;BME280;27537;57.134;-2.136;2023-04-01T07:18:32;100307.31;;;6.37;100.00
41862;BME280;27537;57.134;-2.136;2023-04-01T07:21:04;100283.50;;;6.19;100.00
41862;BME280;27537;57.134;-2.136;2023-04-01T07:23:40;100318.69;;;6.33;100.00
41862;BME280;27537;57.134;-2.136;2023-04-01T07:26:22;100325.47;;;6.38;100.00
41862;BME280;27537;57.134;-2.136;2023-04-01T07:28:51;100299.56;;;6.02;100.00
41862;BME280;27537;57.134;-2.136;2023-04-01T07:31:40;100268.53;;;5.95;100.00
41862;BME280;27537;57.134;-2.136;2023-04-01T07:51:23;100354.31;;;6.62;100.00
41862;BME280;27537;57.134;-2.136;2023-04-01T07:54:06;100373.47;;;6.59;100.00
41862;BME280;27537;57.134;-2.136;2023-04-01T07:56:48;100343.44;;;6.15;100.00
41862;BME280;27537;57.134;-2.136;2023-04-01T08:02:10;100288.16;;;6.08;100.00
41862;BME280;27537;57.134;-2.136;2023-04-01T08:07:57;100349.41;;;6.18;100.00
41862;BME280;27537;57.134;-2.136;2023-04-01T08:10:48;100299.34;;;6.10;100.00
41862;BME280;27537;57.134;-2.136;2023-04-01T08:19:30;100403.72;;;6.62;100.00
41862;BME280;27537;57.134;-2.136;2023-04-01T08:22:02;100374.91;;;6.37;100.00
41862;BME280;27537;57.134;-2.136;2023-04-01T08:24:41;100413.81;;;6.74;100.00
41862;BME280;27537;57.134;-2.136;2023-04-01T08:27:32;100428.09;;;6.59;100.00
41862;BME280;27537;57.134;-2.136;2023-04-01T08:30:20;100383.81;;;6.28;100.00
41862;BME280;27537;57.134;-2.136;2023-04-01T08:32:51;100376.00;;;6.28;100.00
41862;BME280;27537;57.134;-2.136;2023-04-01T08:35:31;100432.91;;;6.75;100.00
41862;BME280;27537;57.134;-2.136;2023-04-01T08:38:06;100411.09;;;6.46;100.00
41862;BME280;27537;57.134;-2.136;2023-04-01T08:40:48;100443.50;;;6.67;100.00
41862;BME280;27537;57.134;-2.136;2023-04-01T08:43:41;100444.19;;;6.74;100.00
41862;BME280;27537;57.134;-2.136;2023-04-01T08:51:54;100416.56;;;6.35;100.00
41862;BME280;27537;57.134;-2.136;2023-04-01T08:54:37;100468.63;;;6.68;100.00
41862;BME280;27537;57.134;-2.136;2023-04-01T08:57:25;100420.44;;;6.19;100.00
41862;BME280;27537;57.134;-2.136;2023-04-01T09:00:31;100468.69;;;6.65;100.00
41862;BME280;27537;57.134;-2.136;2023-04-01T09:03:23;100480.78;;;6.68;100.00
41862;BME280;27537;57.134;-2.136;2023-04-01T09:11:59;100500.22;;;6.53;100.00
41862;BME280;27537;57.134;-2.136;2023-04-01T09:23:41;100514.28;;;6.45;100.00
41862;BME280;27537;57.134;-2.136;2023-04-01T09:27:14;100524.13;;;6.33;100.00
41862;BME280;27537;57.134;-2.136;2023-04-01T09:32:14;100535.25;;;6.39;100.00
41862;BME280;27537;57.134;-2.136;2023-04-01T09:35:10;100517.28;;;6.29;100.00
41862;BME280;27537;57.134;-2.136;2023-04-01T09:43:43;100544.09;;;6.31;100.00
41862;BME280;27537;57.134;-2.136;2023-04-01T09:49:23;100548.88;;;6.49;100.00
41862;BME280;27537;57.134;-2.136;2023-04-01T09:55:05;100554.25;;;6.41;100.00
41862;BME280;27537;57.134;-2.136;2023-04-01T10:24:25;100600.09;;;6.45;100.00
41862;BME280;27537;57.134;-2.136;2023-04-01T10:39:01;100620.53;;;6.62;100.00
41862;BME280;27537;57.134;-2.136;2023-04-01T10:44:34;100628.22;;;6.67;100.00
41862;BME280;27537;57.134;-2.136;2023-04-01T10:53:06;100637.00;;;6.63;100.00
41862;BME280;27537;57.134;-2.136;2023-04-01T10:55:37;100650.19;;;6.55;100.00
41862;BME280;27537;57.134;-2.136;2023-04-01T11:19:30;100688.59;;;6.81;100.00
41862;BME280;27537;57.134;-2.136;2023-04-01T11:22:05;100689.66;;;6.73;100.00
41862;BME280;27537;57.134;-2.136;2023-04-01T11:33:38;100668.97;;;6.68;100.00
41862;BME280;27537;57.134;-2.136;2023-04-01T11:39:16;100677.00;;;6.59;100.00
41862;BME280;27537;57.134;-2.136;2023-04-01T11:44:29;100733.63;;;6.85;100.00
41862;BME280;27537;57.134;-2.136;2023-04-01T11:50:14;100734.34;;;6.93;100.00
41862;BME280;27537;57.134;-2.136;2023-04-01T11:53:18;100683.09;;;6.56;100.00
41862;BME280;27537;57.134;-2.136;2023-04-01T11:56:02;100712.25;;;6.72;100.00
41862;BME280;27537;57.134;-2.136;2023-04-01T11:58:49;100750.03;;;6.89;100.00
41862;BME280;27537;57.134;-2.136;2023-04-01T12:02:05;100743.59;;;7.07;100.00
41862;BME280;27537;57.134;-2.136;2023-04-01T12:17:42;100771.03;;;7.20;100.00
41862;BME280;27537;57.134;-2.136;2023-04-01T12:39:58;100795.13;;;7.31;100.00
41862;BME280;27537;57.134;-2.136;2023-04-01T12:42:55;100741.22;;;6.96;100.00
41862;BME280;27537;57.134;-2.136;2023-04-01T12:46:08;100806.75;;;7.15;100.00
41862;BME280;27537;57.134;-2.136;2023-04-01T13:25:24;100858.38;;;6.96;100.00
41862;BME280;27537;57.134;-2.136;2023-04-01T13:28:05;100832.06;;;6.66;100.00
41862;BME280;27537;57.134;-2.136;2023-04-01T13:30:56;100842.34;;;6.72;100.00
41862;BME280;27537;57.134;-2.136;2023-04-01T13:39:04;100854.06;;;6.93;100.00
41862;BME280;27537;57.134;-2.136;2023-04-01T13:44:34;100841.09;;;6.92;100.00
41862;BME280;27537;57.134;-2.136;2023-04-01T13:55:44;100873.78;;;7.07;100.00
41862;BME280;27537;57.134;-2.136;2023-04-01T14:07:04;100918.88;;;7.49;100.00
41862;BME280;27537;57.134;-2.136;2023-04-01T14:38:23;100957.84;;;7.54;100.00
41862;BME280;27537;57.134;-2.136;2023-04-01T14:40:56;100954.22;;;7.59;100.00
41862;BME280;27537;57.134;-2.136;2023-04-01T14:49:30;100966.44;;;7.57;100.00
41862;BME280;27537;57.134;-2.136;2023-04-01T14:52:27;100936.59;;;7.32;100.00
41862;BME280;27537;57.134;-2.136;2023-04-01T14:54:51;100972.69;;;7.50;100.00
41862;BME280;27537;57.134;-2.136;2023-04-01T14:57:28;100984.69;;;7.57;100.00
41862;BME280;27537;57.134;-2.136;2023-04-01T15:08:54;100993.84;;;7.75;100.00
41862;BME280;27537;57.134;-2.136;2023-04-01T15:24:44;101007.72;;;7.37;100.00
41862;BME280;27537;57.134;-2.136;2023-04-01T15:38:21;101022.94;;;7.55;100.00
41862;BME280;27537;57.134;-2.136;2023-04-01T15:43:47;101018.16;;;7.35;100.00
41862;BME280;27537;57.134;-2.136;2023-04-01T16:00:30;101061.84;;;7.65;100.00
41862;BME280;27537;57.134;-2.136;2023-04-01T16:06:24;101070.41;;;7.71;100.00
41862;BME280;27537;57.134;-2.136;2023-04-01T16:17:25;101084.25;;;7.75;100.00
41862;BME280;27537;57.134;-2.136;2023-04-01T16:23:55;101045.22;;;7.28;100.00
41862;BME280;27537;57.134;-2.136;2023-04-01T16:26:08;101034.19;;;7.14;100.00
41862;BME280;27537;57.134;-2.136;2023-04-01T16:28:52;101077.69;;;7.55;100.00
41862;BME280;27537;57.134;-2.136;2023-04-01T16:36:49;101104.53;;;7.59;100.00
41862;BME280;27537;57.134;-2.136;2023-04-01T16:39:37;101107.88;;;7.66;100.00
41862;BME280;27537;57.134;-2.136;2023-04-01T16:42:43;101111.44;;;7.62;100.00
41862;BME280;27537;57.134;-2.136;2023-04-01T16:45:23;101098.53;;;7.54;100.00
41862;BME280;27537;57.134;-2.136;2023-04-01T16:47:57;101104.47;;;7.62;100.00
41862;BME280;27537;57.134;-2.136;2023-04-01T16:50:42;101068.50;;;7.36;100.00
41862;BME280;27537;57.134;-2.136;2023-04-01T16:58:37;101106.53;;;7.46;100.00
41862;BME280;27537;57.134;-2.136;2023-04-01T17:01:12;101065.53;;;7.08;100.00
41862;BME280;27537;57.134;-2.136;2023-04-01T17:03:46;101092.34;;;7.13;100.00
41862;BME280;27537;57.134;-2.136;2023-04-01T17:06:43;101124.78;;;7.45;100.00
41862;BME280;27537;57.134;-2.136;2023-04-01T17:12:17;101162.03;;;7.50;100.00
41862;BME280;27537;57.134;-2.136;2023-04-01T17:18:01;101125.13;;;7.26;100.00
41862;BME280;27537;57.134;-2.136;2023-04-01T17:20:46;101167.19;;;7.53;100.00
41862;BME280;27537;57.134;-2.136;2023-04-01T17:23:37;101168.06;;;7.53;100.00
41862;BME280;27537;57.134;-2.136;2023-04-01T17:28:48;101178.72;;;7.39;100.00
41862;BME280;27537;57.134;-2.136;2023-04-01T17:39:57;101199.00;;;7.20;100.00
41862;BME280;27537;57.134;-2.136;2023-04-01T17:42:45;101202.66;;;7.10;100.00
41862;BME280;27537;57.134;-2.136;2023-04-01T17:58:34;101234.31;;;7.38;100.00
41862;BME280;27537;57.134;-2.136;2023-04-01T18:02:16;101182.94;;;6.92;100.00
41862;BME280;27537;57.134;-2.136;2023-04-01T18:21:14;101282.66;;;7.56;100.00
41862;BME280;27537;57.134;-2.136;2023-04-01T18:24:02;101199.16;;;7.10;100.00
41862;BME280;27537;57.134;-2.136;2023-04-01T18:26:34;101271.78;;;7.31;100.00
41862;BME280;27537;57.134;-2.136;2023-04-01T18:29:40;101291.56;;;7.43;100.00
41862;BME280;27537;57.134;-2.136;2023-04-01T18:32:36;101296.72;;;7.46;100.00
41862;BME280;27537;57.134;-2.136;2023-04-01T18:35:21;101289.94;;;7.34;100.00
41862;BME280;27537;57.134;-2.136;2023-04-01T18:38:00;101303.72;;;7.43;100.00
41862;BME280;27537;57.134;-2.136;2023-04-01T18:40:35;101221.22;;;6.87;100.00
41862;BME280;27537;57.134;-2.136;2023-04-01T18:43:29;101275.38;;;7.22;100.00
41862;BME280;27537;57.134;-2.136;2023-04-01T18:45:59;101315.94;;;7.39;100.00
41862;BME280;27537;57.134;-2.136;2023-04-01T18:51:20;101318.13;;;7.08;100.00
41862;BME280;27537;57.134;-2.136;2023-04-01T18:53:57;101271.44;;;6.94;100.00
41862;BME280;27537;57.134;-2.136;2023-04-01T18:56:34;101336.81;;;7.36;100.00
41862;BME280;27537;57.134;-2.136;2023-04-01T18:59:28;101256.56;;;7.02;100.00
41862;BME280;27537;57.134;-2.136;2023-04-01T19:02:03;101345.41;;;7.43;100.00
41862;BME280;27537;57.134;-2.136;2023-04-01T19:04:41;101348.03;;;7.41;100.00
41862;BME280;27537;57.134;-2.136;2023-04-01T19:07:39;101354.09;;;7.43;100.00
41862;BME280;27537;57.134;-2.136;2023-04-01T19:15:56;101346.41;;;7.34;100.00
41862;BME280;27537;57.134;-2.136;2023-04-01T19:29:18;101387.94;;;7.45;100.00
41862;BME280;27537;57.134;-2.136;2023-04-01T19:34:49;101344.81;;;7.23;100.00
41862;BME280;27537;57.134;-2.136;2023-04-01T19:51:09;101394.09;;;7.40;100.00
41862;BME280;27537;57.134;-2.136;2023-04-01T19:56:32;101368.28;;;7.20;100.00
41862;BME280;27537;57.134;-2.136;2023-04-01T19:59:21;101351.19;;;7.01;100.00
41862;BME280;27537;57.134;-2.136;2023-04-01T20:05:26;101436.47;;;7.53;100.00
41862;BME280;27537;57.134;-2.136;2023-04-01T20:08:02;101405.56;;;7.24;100.00
41862;BME280;27537;57.134;-2.136;2023-04-01T20:16:06;101463.47;;;7.46;100.00
41862;BME280;27537;57.134;-2.136;2023-04-01T20:26:48;101448.06;;;7.29;100.00
41862;BME280;27537;57.134;-2.136;2023-04-01T20:29:39;101473.06;;;7.44;100.00
41862;BME280;27537;57.134;-2.136;2023-04-01T20:40:39;101431.84;;;7.07;100.00
41862;BME280;27537;57.134;-2.136;2023-04-01T20:46:20;101462.97;;;7.16;100.00
41862;BME280;27537;57.134;-2.136;2023-04-01T20:49:01;101499.19;;;7.36;100.00
41862;BME280;27537;57.134;-2.136;2023-04-01T20:51:45;101499.28;;;7.32;100.00
41862;BME280;27537;57.134;-2.136;2023-04-01T20:54:42;101507.06;;;7.35;100.00
41862;BME280;27537;57.134;-2.136;2023-04-01T20:57:16;101508.75;;;7.36;100.00
41862;BME280;27537;57.134;-2.136;2023-04-01T21:05:41;101521.84;;;7.31;100.00
41862;BME280;27537;57.134;-2.136;2023-04-01T21:16:46;101471.97;;;6.88;100.00
41862;BME280;27537;57.134;-2.136;2023-04-01T21:29:53;101500.66;;;6.81;100.00
41862;BME280;27537;57.134;-2.136;2023-04-01T21:32:46;101499.88;;;6.73;100.00
41862;BME280;27537;57.134;-2.136;2023-04-01T21:38:28;101551.72;;;6.96;100.00
41862;BME280;27537;57.134;-2.136;2023-04-01T21:41:18;101482.72;;;6.52;100.00
41862;BME280;27537;57.134;-2.136;2023-04-01T22:00:38;101574.44;;;6.80;100.00
41862;BME280;27537;57.134;-2.136;2023-04-01T22:03:35;101572.66;;;6.84;100.00
41862;BME280;27537;57.134;-2.136;2023-04-01T22:06:17;101576.13;;;6.84;100.00
41862;BME280;27537;57.134;-2.136;2023-04-01T22:11:21;101581.41;;;6.78;100.00
41862;BME280;27537;57.134;-2.136;2023-04-01T22:17:03;101538.22;;;6.53;100.00
41862;BME280;27537;57.134;-2.136;2023-04-01T22:19:37;101594.41;;;6.80;100.00
41862;BME280;27537;57.134;-2.136;2023-04-01T22:24:55;101590.16;;;6.68;100.00
41862;BME280;27537;57.134;-2.136;2023-04-01T22:32:49;101598.78;;;6.73;100.00
41862;BME280;27537;57.134;-2.136;2023-04-01T22:40:43;101609.16;;;6.78;100.00
41862;BME280;27537;57.134;-2.136;2023-04-01T22:43:28;101610.88;;;6.79;100.00
41862;BME280;27537;57.134;-2.136;2023-04-01T22:54:06;101626.59;;;6.70;100.00
41862;BME280;27537;57.134;-2.136;2023-04-01T22:56:42;101625.75;;;6.66;100.00
41862;BME280;27537;57.134;-2.136;2023-04-01T23:02:20;101562.78;;;6.15;100.00
41862;BME280;27537;57.134;-2.136;2023-04-01T23:04:54;101630.97;;;6.61;100.00
41862;BME280;27537;57.134;-2.136;2023-04-01T23:10:27;101588.66;;;6.32;100.00
41862;BME280;27537;57.134;-2.136;2023-04-01T23:13:01;101644.03;;;6.55;100.00
41862;BME280;27537;57.134;-2.136;2023-04-01T23:15:30;101639.75;;;6.40;100.00
41862;BME280;27537;57.134;-2.136;2023-04-01T23:18:11;101656.19;;;6.52;100.00
41862;BME280;27537;57.134;-2.136;2023-04-01T23:23:44;101626.81;;;6.31;100.00
41862;BME280;27537;57.134;-2.136;2023-04-01T23:26:21;101648.41;;;6.44;100.00
41862;BME280;27537;57.134;-2.136;2023-04-01T23:28:57;101578.47;;;5.90;100.00
41862;BME280;27537;57.134;-2.136;2023-04-01T23:36:45;101628.63;;;6.17;100.00